Time;durP1;ratioP1;P1;durP2;ratioP2;P2;SDS_P1;SDS_P2;PMS_P1;PMS_P2;Temp;Humidity;BMP_temperature;BMP_pressure;BME280_temperature;BME280_humidity;BME280_pressure;Samples;Min_cycle;Max_cycle;Signal;HPM_P1;HPM_P2
2021/09/20 00:01:26;;;;;;;12.18;7.25;;;;;;;13.62;74.78;96188.09;5089865;28;20060;-72
2021/09/20 00:03:54;;;;;;;11.65;6.95;;;;;;;13.61;74.65;96191.97;5090320;28;20494;-73
2021/09/20 00:06:21;;;;;;;8.32;6.25;;;;;;;13.66;74.34;96183.53;5089658;28;20427;-73
2021/09/20 00:08:47;;;;;;;13.18;7.00;;;;;;;13.68;74.26;96189.47;5090351;28;20559;-72
2021/09/20 00:11:14;;;;;;;11.07;6.45;;;;;;;13.69;74.67;96193.81;5089096;28;20050;-72
2021/09/20 00:13:40;;;;;;;8.23;6.40;;;;;;;13.72;73.88;96192.31;5089964;28;20063;-72
2021/09/20 00:16:07;;;;;;;9.43;6.90;;;;;;;13.72;73.80;96189.56;5089208;28;20495;-73
2021/09/20 00:18:34;;;;;;;9.77;6.95;;;;;;;13.68;74.07;96180.47;5088746;28;20051;-72
2021/09/20 00:21:01;;;;;;;8.75;6.38;;;;;;;13.68;74.41;96184.00;5089036;28;20070;-72
2021/09/20 00:23:28;;;;;;;10.10;7.00;;;;;;;13.65;74.53;96190.16;5089469;28;20083;-72
2021/09/20 00:25:56;;;;;;;9.98;7.40;;;;;;;13.59;74.57;96188.78;5089503;28;20052;-72
2021/09/20 00:28:23;;;;;;;9.30;6.63;;;;;;;13.62;74.58;96193.56;5088782;28;20047;-72
2021/09/20 00:30:49;;;;;;;9.60;7.15;;;;;;;13.60;74.79;96195.84;5089362;28;20055;-72
2021/09/20 00:33:16;;;;;;;10.65;7.80;;;;;;;13.58;74.60;96193.47;5089136;28;20044;-72
2021/09/20 00:35:42;;;;;;;10.05;7.25;;;;;;;13.57;74.68;96185.56;5089212;28;20055;-72
2021/09/20 00:38:11;;;;;;;9.23;6.90;;;;;;;13.48;74.56;96187.66;5088400;28;20056;-72
2021/09/20 00:40:37;;;;;;;10.90;7.13;;;;;;;13.41;74.07;96188.19;5089246;28;20055;-72
2021/09/20 00:43:05;;;;;;;11.77;7.28;;;;;;;13.37;74.03;96186.50;5088844;28;20531;-72
2021/09/20 00:45:32;;;;;;;10.15;6.90;;;;;;;13.32;74.40;96185.56;5089272;28;20040;-72
2021/09/20 00:47:58;;;;;;;9.68;7.15;;;;;;;13.28;74.52;96195.59;5088746;28;20435;-72
2021/09/20 00:50:25;;;;;;;10.32;7.88;;;;;;;13.23;74.66;96195.00;5087543;28;20052;-72
2021/09/20 00:52:52;;;;;;;10.05;7.32;;;;;;;13.20;74.77;96199.16;5088429;28;20052;-72
2021/09/20 00:55:20;;;;;;;12.15;8.00;;;;;;;13.17;75.10;96199.84;5087802;28;20435;-72
2021/09/20 00:57:47;;;;;;;12.98;8.20;;;;;;;13.14;75.16;96199.72;5088308;28;20059;-72
2021/09/20 01:00:15;;;;;;;12.43;8.15;;;;;;;13.10;75.38;96199.59;5087730;28;20048;-72
2021/09/20 01:02:41;;;;;;;10.80;7.30;;;;;;;13.11;75.17;96203.16;5088327;28;20051;-72
2021/09/20 01:05:11;;;;;;;11.15;7.75;;;;;;;13.13;75.32;96203.59;5088149;28;20048;-72
2021/09/20 01:07:38;;;;;;;11.93;8.65;;;;;;;13.12;75.55;96213.75;5088452;28;20047;-72
2021/09/20 01:10:06;;;;;;;16.67;7.82;;;;;;;13.15;75.60;96215.78;5088426;28;20052;-72
2021/09/20 01:12:34;;;;;;;11.40;8.10;;;;;;;13.23;75.69;96216.88;5088475;28;20055;-72
2021/09/20 01:15:01;;;;;;;11.02;7.57;;;;;;;13.23;75.55;96217.66;5088204;28;20048;-73
2021/09/20 01:17:28;;;;;;;12.30;7.65;;;;;;;13.24;75.60;96222.00;5088061;28;20052;-72
2021/09/20 01:19:55;;;;;;;11.00;8.32;;;;;;;13.24;75.42;96224.72;5088173;28;20067;-72
2021/09/20 01:22:23;;;;;;;11.00;8.18;;;;;;;13.28;75.46;96220.19;5087840;28;20062;-72
2021/09/20 01:24:53;;;;;;;10.23;7.88;;;;;;;13.23;74.96;96223.16;5088492;28;20062;-72
2021/09/20 01:27:20;;;;;;;10.20;8.13;;;;;;;13.20;74.86;96226.50;5087892;28;20076;-72
2021/09/20 01:29:47;;;;;;;10.88;7.63;;;;;;;13.21;75.35;96222.69;5088384;28;20562;-72
2021/09/20 01:32:14;;;;;;;11.45;8.10;;;;;;;13.19;75.14;96219.44;5087243;28;20043;-72
2021/09/20 01:34:41;;;;;;;10.43;7.78;;;;;;;13.16;74.61;96220.16;5087721;28;20055;-72
2021/09/20 01:37:07;;;;;;;12.63;7.63;;;;;;;13.09;74.65;96227.28;5087280;28;20040;-72
2021/09/20 01:39:36;;;;;;;11.07;7.82;;;;;;;13.07;74.89;96231.16;5087570;28;20044;-72
2021/09/20 01:42:05;;;;;;;12.00;7.82;;;;;;;13.14;75.82;96236.06;5086962;28;20048;-72
2021/09/20 01:44:32;;;;;;;12.38;8.23;;;;;;;13.17;75.64;96240.06;5086888;28;20056;-72
2021/09/20 01:46:58;;;;;;;10.90;8.00;;;;;;;13.17;75.57;96243.59;5086806;28;20048;-72
2021/09/20 01:49:27;;;;;;;12.80;8.10;;;;;;;13.17;75.43;96240.88;5083788;28;20055;-72
2021/09/20 01:51:54;;;;;;;15.38;8.10;;;;;;;13.21;75.70;96243.75;5087591;28;20052;-72
2021/09/20 01:54:21;;;;;;;11.32;8.57;;;;;;;13.20;75.14;96242.91;5087408;28;20068;-72
2021/09/20 01:56:48;;;;;;;11.95;7.90;;;;;;;13.22;75.22;96246.16;5088223;28;20044;-72
2021/09/20 01:59:16;;;;;;;11.35;8.05;;;;;;;13.16;74.89;96241.22;5087237;28;20051;-72
2021/09/20 02:01:43;;;;;;;11.85;8.50;;;;;;;13.15;74.96;96245.84;5088343;28;20048;-73
2021/09/20 02:04:09;;;;;;;13.48;8.95;;;;;;;13.12;75.04;96241.09;5087568;28;20055;-73
2021/09/20 02:06:36;;;;;;;12.82;8.80;;;;;;;13.12;75.30;96249.28;5088181;28;20048;-72
2021/09/20 02:09:06;;;;;;;14.02;8.93;;;;;;;13.10;75.09;96251.53;5087771;28;20048;-73
2021/09/20 02:11:33;;;;;;;12.93;8.88;;;;;;;13.04;74.92;96247.41;5087903;28;20055;-72
2021/09/20 02:14:00;;;;;;;12.88;9.18;;;;;;;13.06;75.18;96253.38;5087561;28;20052;-73
2021/09/20 02:16:28;;;;;;;12.18;9.15;;;;;;;13.03;75.43;96254.03;5087419;28;20062;-73
2021/09/20 02:18:54;;;;;;;11.80;8.32;;;;;;;13.04;75.37;96245.47;5087321;28;20498;-72
2021/09/20 02:21:21;;;;;;;13.57;9.70;;;;;;;13.04;74.53;96258.34;5087155;28;20130;-73
2021/09/20 02:23:48;;;;;;;14.55;10.07;;;;;;;12.99;74.36;96264.03;5087990;28;20056;-73
2021/09/20 02:26:14;;;;;;;13.50;9.38;;;;;;;12.95;74.74;96247.53;5087355;28;20692;-73
2021/09/20 02:28:41;;;;;;;15.63;10.05;;;;;;;12.98;74.54;96256.97;5088225;28;20070;-72
2021/09/20 02:31:09;;;;;;;15.55;9.60;;;;;;;13.00;74.44;96258.25;5087510;28;20044;-72
2021/09/20 02:33:38;;;;;;;16.02;9.35;;;;;;;12.98;74.35;96262.44;5087559;28;20507;-72
2021/09/20 02:36:06;;;;;;;12.90;9.65;;;;;;;12.97;73.86;96260.84;5087062;28;20059;-72
2021/09/20 02:38:33;;;;;;;16.67;10.10;;;;;;;12.93;74.12;96259.91;5087792;28;20048;-72
2021/09/20 02:41:00;;;;;;;13.90;10.18;;;;;;;12.94;74.44;96256.03;5089129;28;20063;-73
2021/09/20 02:43:27;;;;;;;14.13;9.73;;;;;;;12.95;74.38;96257.66;5091588;28;20056;-73
2021/09/20 02:45:53;;;;;;;14.55;9.35;;;;;;;13.00;73.86;96249.25;5091622;28;20044;-72
2021/09/20 02:48:20;;;;;;;13.77;9.85;;;;;;;13.00;74.03;96250.03;5090936;28;20047;-72
2021/09/20 02:50:48;;;;;;;14.43;10.05;;;;;;;13.03;73.24;96254.03;5091538;28;20048;-72
2021/09/20 02:53:15;;;;;;;16.40;10.23;;;;;;;12.99;73.29;96258.56;5090998;28;20075;-72
2021/09/20 02:55:42;;;;;;;16.73;10.07;;;;;;;12.95;73.37;96263.13;5091479;28;20051;-72
2021/09/20 02:58:09;;;;;;;16.17;10.35;;;;;;;12.89;73.14;96264.44;5090528;28;20093;-72
2021/09/20 03:00:36;;;;;;;15.40;10.82;;;;;;;12.85;73.48;96272.53;5091339;28;20048;-72
2021/09/20 03:03:02;;;;;;;15.15;10.63;;;;;;;12.78;73.84;96274.97;5090536;28;20044;-73
2021/09/20 03:05:29;;;;;;;15.30;10.55;;;;;;;12.78;72.68;96270.31;5091184;28;20588;-72
2021/09/20 03:07:57;;;;;;;13.52;9.88;;;;;;;12.72;72.63;96271.66;5091193;28;20063;-72
2021/09/20 03:10:24;;;;;;;17.70;11.38;;;;;;;12.69;72.52;96266.88;5074180;28;20049;-72
2021/09/20 03:12:50;;;;;;;16.48;10.38;;;;;;;12.72;72.68;96266.19;5071025;28;20047;-72
2021/09/20 03:15:17;;;;;;;15.82;10.60;;;;;;;12.69;72.80;96272.34;5069974;28;20052;-72
2021/09/20 03:17:43;;;;;;;15.20;11.23;;;;;;;12.74;72.97;96274.06;5070562;28;20525;-72
2021/09/20 03:20:10;;;;;;;16.45;11.27;;;;;;;12.74;72.59;96277.59;5087117;28;20060;-72
2021/09/20 03:22:37;;;;;;;16.48;11.10;;;;;;;12.71;72.03;96274.72;5090648;28;20517;-72
2021/09/20 03:25:07;;;;;;;16.88;11.07;;;;;;;12.69;72.29;96277.78;5090498;28;20074;-72
2021/09/20 03:27:33;;;;;;;15.20;10.73;;;;;;;12.67;72.40;96269.13;5090852;28;20048;-72
2021/09/20 03:30:00;;;;;;;17.10;11.82;;;;;;;12.70;72.07;96284.06;5090921;28;20048;-72
2021/09/20 03:32:26;;;;;;;16.23;11.30;;;;;;;12.70;72.57;96284.06;5090674;28;20438;-72
2021/09/20 03:34:53;;;;;;;16.48;10.65;;;;;;;12.73;72.51;96286.91;5090914;28;20510;-73
2021/09/20 03:37:20;;;;;;;17.88;10.80;;;;;;;12.76;72.98;96286.25;5090104;28;20043;-72
2021/09/20 03:39:46;;;;;;;15.48;10.50;;;;;;;12.79;73.35;96288.31;5090807;28;20052;-72
2021/09/20 03:42:14;;;;;;;18.10;12.68;;;;;;;12.80;73.48;96289.13;5090146;28;20044;-72
2021/09/20 03:44:41;;;;;;;18.92;11.43;;;;;;;12.77;73.18;96290.56;5090664;28;20040;-74
2021/09/20 03:47:07;;;;;;;15.57;10.63;;;;;;;12.72;72.94;96290.78;5090019;28;20499;-72
2021/09/20 03:49:34;;;;;;;18.67;12.27;;;;;;;12.71;73.30;96297.38;5089970;28;20079;-72
2021/09/20 03:52:01;;;;;;;16.73;12.02;;;;;;;12.74;72.92;96288.53;5090589;28;20051;-74
2021/09/20 03:54:27;;;;;;;16.73;11.65;;;;;;;12.76;72.94;96294.44;5090230;28;20051;-74
2021/09/20 03:56:54;;;;;;;17.50;11.60;;;;;;;12.77;72.46;96298.78;5090125;28;20499;-75
2021/09/20 03:59:21;;;;;;;16.80;11.15;;;;;;;12.83;72.01;96293.91;5089860;28;20044;-72
2021/09/20 04:01:48;;;;;;;16.42;11.63;;;;;;;12.80;71.52;96298.13;5090375;28;20040;-73
2021/09/20 04:04:16;;;;;;;17.85;12.10;;;;;;;12.82;72.12;96297.78;5089455;28;20044;-72
2021/09/20 04:06:43;;;;;;;16.13;11.32;;;;;;;12.83;72.20;96298.56;5090181;28;20519;-72
2021/09/20 04:09:10;;;;;;;16.05;11.57;;;;;;;12.85;72.46;96296.31;5089719;28;20040;-73
2021/09/20 04:11:40;;;;;;;18.63;12.25;;;;;;;12.85;72.42;96299.84;5090008;28;20492;-73
2021/09/20 04:14:07;;;;;;;18.63;12.27;;;;;;;12.89;72.25;96302.69;5089671;28;20097;-73
2021/09/20 04:16:35;;;;;;;17.75;12.05;;;;;;;12.86;71.69;96287.78;5090004;28;20052;-72
2021/09/20 04:19:01;;;;;;;20.17;12.27;;;;;;;12.82;72.16;96302.44;5088865;28;20040;-72
2021/09/20 04:21:28;;;;;;;17.50;11.95;;;;;;;12.77;72.15;96296.03;5089535;28;20055;-72
2021/09/20 04:23:54;;;;;;;19.40;12.13;;;;;;;12.76;72.51;96305.38;5089600;28;20055;-72
2021/09/20 04:26:21;;;;;;;20.10;12.98;;;;;;;12.77;72.53;96306.97;5089265;28;20060;-73
2021/09/20 04:28:47;;;;;;;19.98;12.35;;;;;;;12.76;72.23;96310.84;5089657;28;20052;-72
2021/09/20 04:31:14;;;;;;;20.13;12.77;;;;;;;12.74;72.89;96307.66;5088955;28;20044;-72
2021/09/20 04:33:42;;;;;;;17.50;11.65;;;;;;;12.78;72.37;96311.28;5089615;28;20052;-72
2021/09/20 04:36:08;;;;;;;18.38;11.98;;;;;;;12.74;72.26;96315.84;5088723;28;20055;-72
2021/09/20 04:38:35;;;;;;;19.83;12.32;;;;;;;12.73;72.74;96311.50;5089512;28;20051;-72
2021/09/20 04:41:01;;;;;;;20.25;12.88;;;;;;;12.71;72.24;96318.44;5089330;28;20502;-72
2021/09/20 04:43:28;;;;;;;20.65;13.20;;;;;;;12.68;73.09;96325.34;5089522;28;20056;-73
2021/09/20 04:45:54;;;;;;;20.65;12.35;;;;;;;12.71;73.17;96324.69;5089219;28;20787;-72
2021/09/20 04:48:21;;;;;;;17.30;12.30;;;;;;;12.78;73.13;96324.16;5088378;28;20060;-73
2021/09/20 04:50:52;;;;;;;17.83;12.25;;;;;;;12.77;72.96;96317.91;5089278;28;20506;-72
2021/09/20 04:53:19;;;;;;;17.90;11.82;;;;;;;12.81;71.46;96323.50;5088587;28;20051;-72
2021/09/20 04:55:47;;;;;;;17.42;11.88;;;;;;;12.83;72.06;96336.81;5088999;28;20048;-73
2021/09/20 04:58:14;;;;;;;15.25;10.80;;;;;;;12.85;71.97;96334.59;5088596;28;20135;-72
2021/09/20 05:00:41;;;;;;;17.77;11.32;;;;;;;12.86;70.91;96338.91;5088581;28;20097;-72
2021/09/20 05:03:08;;;;;;;16.50;11.48;;;;;;;12.83;70.89;96336.81;5088001;28;20129;-72
2021/09/20 05:05:35;;;;;;;17.77;11.40;;;;;;;12.78;71.14;96335.88;5088949;28;20047;-73
2021/09/20 05:08:03;;;;;;;15.57;11.32;;;;;;;12.79;71.25;96342.97;5088462;28;20068;-72
2021/09/20 05:10:30;;;;;;;18.83;11.52;;;;;;;12.79;71.44;96334.78;5088324;28;20052;-72
2021/09/20 05:12:56;;;;;;;18.45;12.65;;;;;;;12.78;71.60;96341.34;5088933;28;20055;-73
2021/09/20 05:15:23;;;;;;;19.73;12.80;;;;;;;12.79;72.08;96353.91;5088228;28;20058;-74
2021/09/20 05:17:49;;;;;;;22.58;12.85;;;;;;;12.82;71.75;96351.63;5088597;28;20059;-74
2021/09/20 05:20:17;;;;;;;21.20;12.75;;;;;;;12.82;72.06;96346.16;5087614;28;20056;-72
2021/09/20 05:22:44;;;;;;;20.45;12.80;;;;;;;12.83;72.18;96353.22;5088754;28;20063;-74
2021/09/20 05:25:12;;;;;;;19.33;12.00;;;;;;;12.86;71.95;96352.56;5088092;28;20047;-74
2021/09/20 05:27:38;;;;;;;19.08;12.23;;;;;;;12.84;71.61;96349.34;5088420;28;20498;-75
2021/09/20 05:30:07;;;;;;;19.05;12.52;;;;;;;12.86;71.83;96352.56;5088156;28;20411;-74
2021/09/20 05:32:33;;;;;;;21.70;12.43;;;;;;;12.83;71.29;96354.03;5088622;28;20059;-73
2021/09/20 05:35:00;;;;;;;20.73;12.52;;;;;;;12.83;71.62;96361.41;5088514;28;20052;-73
2021/09/20 05:37:26;;;;;;;19.90;12.60;;;;;;;12.79;71.92;96364.84;5088109;28;20051;-73
2021/09/20 05:39:53;;;;;;;18.98;11.75;;;;;;;12.80;71.67;96366.44;5088253;28;20056;-74
2021/09/20 05:42:21;;;;;;;20.55;12.27;;;;;;;12.80;70.95;96363.69;5087693;28;20047;-74
2021/09/20 05:44:48;;;;;;;17.05;11.55;;;;;;;12.84;71.18;96365.75;5088277;28;20051;-73
2021/09/20 05:47:14;;;;;;;18.58;11.98;;;;;;;12.80;71.37;96374.63;5087495;28;20075;-74
2021/09/20 05:49:41;;;;;;;20.02;11.93;;;;;;;12.82;72.07;96384.41;5088029;28;20063;-74
2021/09/20 05:52:07;;;;;;;19.38;11.45;;;;;;;12.84;71.49;96382.16;5087762;28;20048;-74
2021/09/20 05:54:34;;;;;;;20.40;12.48;;;;;;;12.83;70.98;96386.03;5088004;28;20055;-76
2021/09/20 05:57:00;;;;;;;19.02;11.30;;;;;;;12.83;71.31;96386.03;5087846;28;20040;-80
2021/09/20 05:59:28;;;;;;;20.45;12.63;;;;;;;12.82;71.44;96393.41;5087268;28;20063;-79
2021/09/20 06:01:55;;;;;;;20.40;12.65;;;;;;;12.80;72.07;96385.56;5087873;28;20479;-78
2021/09/20 06:04:23;;;;;;;18.70;11.80;;;;;;;12.82;71.98;96389.88;5087052;28;20047;-78
2021/09/20 06:06:50;;;;;;;21.73;12.65;;;;;;;12.85;71.08;96383.78;5087574;28;20080;-78
2021/09/20 06:09:17;;;;;;;23.83;13.25;;;;;;;12.85;71.89;96383.78;5087218;28;20047;-78
2021/09/20 06:11:43;;;;;;;20.30;13.00;;;;;;;12.84;72.22;96393.06;5087474;28;20296;-79
2021/09/20 06:14:10;;;;;;;24.33;13.05;;;;;;;12.85;72.08;96395.50;5086811;28;20557;-78
2021/09/20 06:16:38;;;;;;;18.88;12.52;;;;;;;12.85;71.98;96389.25;5090294;28;20059;-79
2021/09/20 06:19:04;;;;;;;19.70;12.38;;;;;;;12.87;72.24;96395.16;5090989;28;20051;-79
2021/09/20 06:21:31;;;;;;;18.95;12.32;;;;;;;12.89;72.64;96392.88;5091607;28;20055;-78
2021/09/20 06:23:58;;;;;;;19.27;11.48;;;;;;;12.91;72.30;96390.63;5091860;28;20048;-78
2021/09/20 06:26:24;;;;;;;16.50;11.02;;;;;;;12.95;70.04;96394.31;5091455;28;20615;-79
2021/09/20 06:28:51;;;;;;;17.20;11.07;;;;;;;12.99;69.61;96395.22;5091731;28;20040;-78
2021/09/20 06:31:17;;;;;;;18.80;11.18;;;;;;;13.00;69.74;96391.38;5091235;28;20052;-79
2021/09/20 06:33:45;;;;;;;18.23;10.25;;;;;;;12.99;70.57;96395.22;5091458;28;20063;-78
2021/09/20 06:36:12;;;;;;;18.50;11.23;;;;;;;13.05;70.50;96404.84;5091124;28;20044;-78
2021/09/20 06:38:38;;;;;;;15.75;10.95;;;;;;;13.08;70.61;96409.66;5091585;28;20048;-78
2021/09/20 06:41:05;;;;;;;16.60;11.02;;;;;;;13.11;70.28;96405.47;5091050;28;20517;-79
2021/09/20 06:43:31;;;;;;;17.05;11.55;;;;;;;13.16;69.61;96403.31;5091605;28;20057;-79
2021/09/20 06:45:58;;;;;;;15.88;10.65;;;;;;;13.13;69.51;96403.97;5091615;28;20062;-79
2021/09/20 06:48:24;;;;;;;18.20;10.45;;;;;;;13.06;69.64;96409.19;5090330;28;20067;-78
2021/09/20 06:50:52;;;;;;;16.27;10.70;;;;;;;13.05;69.25;96410.31;5091495;28;20052;-77
2021/09/20 06:53:19;;;;;;;16.75;11.35;;;;;;;13.04;70.03;96403.22;5090879;28;20044;-79
2021/09/20 06:55:45;;;;;;;16.90;11.50;;;;;;;13.08;70.04;96404.19;5091353;28;20063;-78
2021/09/20 06:58:11;;;;;;;19.05;10.90;;;;;;;13.11;70.44;96403.53;5090331;28;20047;-78
2021/09/20 07:00:38;;;;;;;18.00;11.18;;;;;;;13.11;70.09;96409.00;5091072;28;20040;-78
2021/09/20 07:03:05;;;;;;;17.52;11.50;;;;;;;13.12;70.78;96407.84;5090423;28;20044;-77
2021/09/20 07:05:31;;;;;;;17.27;11.57;;;;;;;13.18;70.09;96406.50;5090970;28;20044;-78
2021/09/20 07:08:00;;;;;;;18.95;11.85;;;;;;;13.13;69.28;96403.97;5091090;28;20048;-78
2021/09/20 07:10:28;;;;;;;18.38;11.90;;;;;;;13.10;69.78;96404.63;5090433;28;20109;-78
2021/09/20 07:12:55;;;;;;;16.67;11.60;;;;;;;13.13;69.64;96409.44;5090824;28;20052;-78
2021/09/20 07:15:21;;;;;;;17.73;11.75;;;;;;;13.18;70.52;96408.44;5090539;28;20052;-78
2021/09/20 07:17:48;;;;;;;17.17;11.20;;;;;;;13.17;69.98;96410.38;5090738;28;20051;-79
2021/09/20 07:20:14;;;;;;;16.20;11.32;;;;;;;13.22;69.15;96407.50;5089475;28;20048;-79
2021/09/20 07:22:43;;;;;;;16.17;11.25;;;;;;;13.26;69.47;96410.38;5090921;28;20063;-78
2021/09/20 07:25:11;;;;;;;18.50;10.93;;;;;;;13.30;69.48;96417.53;5089905;28;20566;-78
2021/09/20 07:27:38;;;;;;;17.02;11.30;;;;;;;13.35;68.21;96410.28;5089985;28;20044;-78
2021/09/20 07:30:07;;;;;;;17.48;11.10;;;;;;;13.36;67.71;96409.94;5089870;28;20438;-77
2021/09/20 07:32:34;;;;;;;16.10;11.38;;;;;;;13.39;67.59;96413.94;5090259;28;20638;-77
2021/09/20 07:35:00;;;;;;;24.85;10.90;;;;;;;13.40;67.95;96413.59;5090541;28;20052;-77
2021/09/20 07:37:27;;;;;;;15.07;10.57;;;;;;;13.42;67.37;96418.75;5089737;28;20490;-78
2021/09/20 07:39:53;;;;;;;16.38;10.70;;;;;;;13.37;67.01;96417.03;5090598;28;20689;-78
2021/09/20 07:42:21;;;;;;;15.77;10.85;;;;;;;13.35;67.29;96430.22;5089827;28;20048;-78
2021/09/20 07:44:48;;;;;;;15.95;10.73;;;;;;;13.31;67.12;96424.63;5090330;28;20062;-79
2021/09/20 07:47:14;;;;;;;15.65;10.88;;;;;;;13.31;65.81;96426.53;5089550;28;20051;-78
2021/09/20 07:49:41;;;;;;;15.68;10.75;;;;;;;13.29;66.66;96437.03;5088932;28;20138;-79
2021/09/20 07:52:07;;;;;;;18.45;11.05;;;;;;;13.30;67.93;96439.41;5089452;28;20056;-77
2021/09/20 07:54:34;;;;;;;19.70;11.52;;;;;;;13.31;69.35;96437.47;5090080;28;20052;-79
2021/09/20 07:57:00;;;;;;;16.50;10.65;;;;;;;13.36;69.61;96436.50;5090107;28;20510;-78
2021/09/20 07:59:28;;;;;;;22.73;10.88;;;;;;;13.38;67.57;96439.72;5089447;28;20052;-78
2021/09/20 08:01:55;;;;;;;18.60;11.43;;;;;;;13.43;68.56;96442.25;5089832;28;20047;-78
2021/09/20 08:04:21;;;;;;;17.50;11.48;;;;;;;13.47;68.92;96440.44;5089262;28;20048;-76
2021/09/20 08:06:48;;;;;;;16.75;10.57;;;;;;;13.54;67.19;96446.16;5089863;28;20601;-79
2021/09/20 08:09:14;;;;;;;17.42;10.43;;;;;;;13.61;67.07;96442.88;5089328;28;20062;-78
2021/09/20 08:11:41;;;;;;;16.90;10.48;;;;;;;13.61;65.40;96438.22;5089554;28;20052;-79
2021/09/20 08:14:07;;;;;;;17.83;11.57;;;;;;;13.53;65.16;96447.31;5088865;28;20055;-78
2021/09/20 08:16:35;;;;;;;15.90;10.38;;;;;;;13.46;66.17;96453.28;5089546;28;20059;-78
2021/09/20 08:19:02;;;;;;;22.75;14.40;;;;;;;13.50;66.67;96456.19;5088539;28;20052;-77
2021/09/20 08:21:28;;;;;;;18.13;11.75;;;;;;;13.47;67.08;96459.59;5089411;28;20054;-77
2021/09/20 08:23:55;;;;;;;17.20;11.93;;;;;;;13.53;67.40;96458.25;5089477;28;20043;-78
2021/09/20 08:26:21;;;;;;;18.13;10.70;;;;;;;13.61;66.98;96464.78;5088789;28;20048;-77
2021/09/20 08:28:48;;;;;;;14.45;10.05;;;;;;;13.70;68.05;96466.31;5089368;28;20486;-78
2021/09/20 08:31:14;;;;;;;18.38;10.23;;;;;;;13.73;66.92;96473.84;5088813;28;20056;-78
2021/09/20 08:33:42;;;;;;;14.70;10.35;;;;;;;13.76;66.18;96467.69;5089389;28;20063;-78
2021/09/20 08:36:11;;;;;;;16.90;11.25;;;;;;;13.84;66.37;96469.56;5088547;28;20106;-77
2021/09/20 08:38:37;;;;;;;23.77;10.85;;;;;;;13.90;66.51;96469.38;5088626;28;20060;-77
2021/09/20 08:41:04;;;;;;;24.67;12.02;;;;;;;13.94;67.11;96473.00;5088039;28;20048;-77
2021/09/20 08:43:30;;;;;;;17.10;10.30;;;;;;;14.06;67.57;96475.81;5088575;28;20058;-78
2021/09/20 08:46:02;;;;;;;24.17;11.35;;;;;;;14.10;67.30;96476.75;5079528;28;20075;-77
2021/09/20 08:48:29;;;;;;;19.40;10.82;;;;;;;14.16;65.97;96486.34;5070810;28;20047;-77
2021/09/20 08:50:57;;;;;;;16.17;11.52;;;;;;;14.21;65.69;96472.44;5088641;28;20048;-77
2021/09/20 08:53:24;;;;;;;15.88;10.65;;;;;;;14.37;67.36;96472.59;5088347;28;20055;-77
2021/09/20 08:55:50;;;;;;;15.40;10.18;;;;;;;14.63;65.58;96480.53;5089051;28;20064;-77
2021/09/20 08:58:17;;;;;;;14.63;9.98;;;;;;;14.88;65.71;96484.91;5088091;28;20048;-78
2021/09/20 09:00:44;;;;;;;15.38;10.18;;;;;;;14.99;63.69;96487.97;5088703;28;20561;-77
2021/09/20 09:03:10;;;;;;;17.42;10.35;;;;;;;15.04;61.60;96484.22;5088228;28;20051;-77
2021/09/20 09:05:37;;;;;;;15.05;10.32;;;;;;;15.08;63.24;96483.16;5088649;28;20439;-78
2021/09/20 09:08:07;;;;;;;14.57;9.00;;;;;;;15.14;60.46;96483.75;5088373;28;20063;-77
2021/09/20 09:10:35;;;;;;;16.35;9.63;;;;;;;15.27;62.12;96481.78;5088178;28;20048;-77
2021/09/20 09:13:04;;;;;;;14.48;9.45;;;;;;;15.28;62.23;96481.44;5088157;28;20048;-77
2021/09/20 09:15:31;;;;;;;13.88;9.52;;;;;;;15.34;61.11;96487.47;5088574;28;20052;-79
2021/09/20 09:18:01;;;;;;;20.23;9.45;;;;;;;15.50;62.07;96482.06;5088306;28;20052;-77
2021/09/20 09:20:30;;;;;;;18.23;9.00;;;;;;;15.65;61.94;96479.44;5087365;28;20058;-77
2021/09/20 09:22:58;;;;;;;12.73;8.20;;;;;;;15.76;59.83;96485.25;5088500;28;20044;-78
2021/09/20 09:25:28;;;;;;;14.60;7.97;;;;;;;15.78;59.44;96487.66;5087575;28;20052;-77
2021/09/20 09:28:01;;;;;;;11.63;7.32;;;;;;;16.01;57.86;96490.66;5088345;28;20058;-76
2021/09/20 09:30:29;;;;;;;12.82;6.60;;;;;;;16.40;57.27;96495.28;5087972;28;20465;-78
2021/09/20 09:33:08;;;;;;;11.02;7.70;;;;;;;16.72;57.30;96483.56;5088367;28;20052;-77
2021/09/20 09:35:36;;;;;;;10.55;6.57;;;;;;;16.87;55.30;96491.81;5087960;28;20105;-76
2021/09/20 09:38:05;;;;;;;8.43;6.18;;;;;;;16.97;54.35;96497.94;5087601;28;20753;-77
2021/09/20 09:40:46;;;;;;;8.15;6.03;;;;;;;17.21;54.09;96486.69;5088021;28;20055;-77
2021/09/20 09:43:12;;;;;;;10.40;7.50;;;;;;;17.27;53.13;96485.25;5087855;28;20051;-76
2021/09/20 09:45:39;;;;;;;8.38;6.22;;;;;;;17.24;54.16;96486.00;5087850;28;20400;-77
2021/09/20 09:48:09;;;;;;;10.30;6.38;;;;;;;17.18;54.21;96492.94;5087185;28;20051;-77
2021/09/20 09:50:40;;;;;;;10.73;6.70;;;;;;;17.05;53.32;96485.94;5067643;28;20052;-76
2021/09/20 09:53:07;;;;;;;9.27;6.85;;;;;;;16.77;53.18;96483.28;5067147;28;20431;-76
2021/09/20 09:55:35;;;;;;;10.95;7.13;;;;;;;16.63;54.88;96489.97;5067629;28;20503;-76
2021/09/20 09:58:11;;;;;;;13.15;8.23;;;;;;;16.54;55.54;96492.09;5066900;28;20051;-73
2021/09/20 10:00:38;;;;;;;12.10;8.90;;;;;;;16.50;57.78;96484.94;5067302;28;20048;-76
2021/09/20 10:03:05;;;;;;;13.18;8.48;;;;;;;16.57;56.90;96487.84;5066874;28;20079;-76
2021/09/20 10:05:33;;;;;;;10.23;7.55;;;;;;;16.63;56.52;96489.19;5067570;28;20705;-77
2021/09/20 10:08:00;;;;;;;10.48;6.60;;;;;;;16.67;57.36;96490.06;5067522;28;20056;-76
2021/09/20 10:10:29;;;;;;;7.57;6.13;;;;;;;16.80;55.53;96486.09;5067255;28;20637;-78
2021/09/20 10:13:00;;;;;;;8.98;6.38;;;;;;;16.94;54.06;96483.72;5067339;28;20052;-76
2021/09/20 10:15:28;;;;;;;12.65;7.68;;;;;;;16.99;54.33;96481.84;5067201;28;20064;-76
2021/09/20 10:17:55;;;;;;;11.20;6.72;;;;;;;17.03;54.70;96477.25;5067215;28;20045;-77
2021/09/20 10:20:23;;;;;;;8.82;6.20;;;;;;;17.06;53.51;96479.25;5085454;28;20066;-76
2021/09/20 10:22:50;;;;;;;7.25;5.35;;;;;;;17.07;54.71;96475.34;5087522;28;20048;-77
2021/09/20 10:25:19;;;;;;;9.35;5.72;;;;;;;16.89;52.79;96474.94;5087254;28;20044;-76
2021/09/20 10:27:47;;;;;;;8.75;6.10;;;;;;;16.66;54.77;96472.78;5087514;28;20048;-77
2021/09/20 10:30:19;;;;;;;11.02;6.07;;;;;;;16.52;54.73;96477.13;5086860;28;20048;-76
2021/09/20 10:32:51;;;;;;;10.48;6.68;;;;;;;16.38;55.94;96478.31;5087227;28;20063;-76
2021/09/20 10:35:30;;;;;;;9.60;6.55;;;;;;;16.32;54.49;96479.75;5087003;28;20044;-77
2021/09/20 10:38:00;;;;;;;10.02;6.60;;;;;;;16.21;56.27;96477.84;5087042;28;20066;-76
2021/09/20 10:40:28;;;;;;;7.35;5.75;;;;;;;16.11;56.76;96473.66;5087211;28;20048;-78
2021/09/20 10:43:02;;;;;;;8.95;5.97;;;;;;;16.06;57.44;96471.16;5087165;28;20498;-77
2021/09/20 10:45:54;;;;;;;7.60;5.28;;;;;;;16.08;57.77;96475.19;5087098;28;20040;-76
2021/09/20 10:48:30;;;;;;;10.45;5.82;;;;;;;16.01;56.26;96479.66;5086626;28;20051;-79
2021/09/20 10:51:00;;;;;;;8.38;4.97;;;;;;;15.97;57.40;96481.50;5087114;28;20056;-75
2021/09/20 10:53:32;;;;;;;9.35;4.95;;;;;;;15.98;56.68;96481.19;5087075;28;20064;-76
2021/09/20 10:56:14;;;;;;;8.55;5.43;;;;;;;15.99;57.68;96476.47;5086923;28;20048;-77
2021/09/20 10:58:42;;;;;;;9.70;6.78;;;;;;;15.98;58.21;96481.19;5087158;28;20048;-76
2021/09/20 11:01:29;;;;;;;9.70;6.38;;;;;;;15.95;56.93;96490.09;5086433;28;20052;-77
2021/09/20 11:03:59;;;;;;;15.75;6.35;;;;;;;15.98;56.55;96485.88;5091081;28;20706;-75
2021/09/20 11:06:27;;;;;;;12.52;6.45;;;;;;;16.03;58.06;96482.88;5090240;28;20039;-76
2021/09/20 11:09:27;;;;;;;7.75;5.60;;;;;;;16.11;57.75;96476.41;5090950;28;20139;-76
2021/09/20 11:12:09;;;;;;;10.00;5.65;;;;;;;16.15;57.51;96485.56;5091017;28;20533;-77
2021/09/20 11:14:42;;;;;;;10.77;6.13;;;;;;;16.03;54.58;96488.38;5090213;28;20495;-75
2021/09/20 11:17:27;;;;;;;;;;;;;;;16.06;56.48;96484.91;5090723;28;20124;-76
2021/09/20 11:19:56;;;;;;;7.40;5.38;;;;;;;16.10;54.41;96494.84;5089879;28;19927;-75
2021/09/20 11:22:28;;;;;;;8.70;5.63;;;;;;;16.16;55.48;96487.16;5090076;28;20052;-75
2021/09/20 11:25:02;;;;;;;5.53;3.90;;;;;;;16.22;54.60;96485.75;5090624;28;20048;-76